createdAt,value
2022-09-15T00:02:49.309Z,18.88
2022-09-15T00:07:57.806Z,18.93
2022-09-15T00:13:06.246Z,19.01
2022-09-15T00:18:14.014Z,19.11
2022-09-15T00:23:22.425Z,19.12
2022-09-15T00:28:30.553Z,19.12
2022-09-15T00:33:38.487Z,19.09
2022-09-15T00:38:46.523Z,19.09
2022-09-15T00:43:53.875Z,18.94
2022-09-15T00:49:00.348Z,18.98
2022-09-15T00:54:06.943Z,18.94
2022-09-15T00:59:14.774Z,18.86
2022-09-15T01:04:22.032Z,18.83
2022-09-15T01:09:30.543Z,18.7
2022-09-15T01:14:38.230Z,18.58
2022-09-15T01:19:45.031Z,18.7
2022-09-15T01:24:52.700Z,18.69
2022-09-15T01:30:01.300Z,18.7
2022-09-15T01:35:10.630Z,18.7
2022-09-15T01:40:18.628Z,18.78
2022-09-15T01:45:26.837Z,18.76
2022-09-15T01:50:34.848Z,18.96
2022-09-15T01:55:42.577Z,19.06
2022-09-15T02:00:50.340Z,19.02
2022-09-15T02:05:58.017Z,18.94
2022-09-15T02:11:05.452Z,18.84
2022-09-15T02:17:43.944Z,18.89
2022-09-15T02:22:50.516Z,18.71
2022-09-15T02:27:57.294Z,18.51
2022-09-15T02:33:04.288Z,18.36
2022-09-15T02:38:11.845Z,18.29
2022-09-15T02:43:19.439Z,18.46
2022-09-15T02:48:26.489Z,18.22
2022-09-15T02:53:34.528Z,18.52
2022-09-15T02:58:42.345Z,18.82
2022-09-15T03:03:49.398Z,18.88
2022-09-15T03:08:57.989Z,18.83
2022-09-15T03:14:05.160Z,18.72
2022-09-15T03:19:12.947Z,18.7
2022-09-15T03:24:20.137Z,18.68
2022-09-15T03:29:27.989Z,18.68
2022-09-15T03:34:35.943Z,18.53
2022-09-15T03:39:43.833Z,18.62
2022-09-15T03:44:52.416Z,18.76
2022-09-15T03:49:59.940Z,18.85
2022-09-15T03:55:07.338Z,18.9
2022-09-15T04:00:13.762Z,18.94
2022-09-15T04:05:22.089Z,19.08
2022-09-15T04:10:30.487Z,18.91
2022-09-15T04:15:43.062Z,18.85
2022-09-15T04:20:50.912Z,18.88
2022-09-15T04:25:58.210Z,18.93
2022-09-15T04:31:06.521Z,19.09
2022-09-15T04:36:13.703Z,19.15
2022-09-15T04:41:21.148Z,19.11
2022-09-15T04:46:28.694Z,19.15
2022-09-15T04:51:36.547Z,19.22
2022-09-15T04:56:44.912Z,19.2
2022-09-15T05:01:52.501Z,19.22
2022-09-15T05:07:00.776Z,19.25
2022-09-15T05:12:09.168Z,19.26
2022-09-15T05:17:16.378Z,19.33
2022-09-15T05:22:24.251Z,19.56
2022-09-15T05:27:32.599Z,19.65
2022-09-15T05:32:40.281Z,19.98
2022-09-15T05:37:48.071Z,20.17
2022-09-15T05:42:55.924Z,20.29
2022-09-15T05:48:03.443Z,20.38
2022-09-15T05:53:10.006Z,20.48
2022-09-15T05:58:18.316Z,20.53
2022-09-15T06:03:25.699Z,20.46
2022-09-15T06:08:33.575Z,20.24
2022-09-15T06:13:42.556Z,20.06
2022-09-15T06:18:50.233Z,20.3
2022-09-15T06:23:58.312Z,20.44
2022-09-15T06:29:07.356Z,20.86
2022-09-15T06:34:14.619Z,21.21
2022-09-15T06:39:23.502Z,21.07
2022-09-15T06:44:30.995Z,21.33
2022-09-15T06:49:38.167Z,21.88
2022-09-15T06:54:46.201Z,22.03
2022-09-15T06:59:54.257Z,22.01
2022-09-15T07:05:01.653Z,21.73
2022-09-15T07:10:09.471Z,21.62
2022-09-15T07:15:16.882Z,21.78
2022-09-15T07:20:24.172Z,21.64
2022-09-15T07:25:32.263Z,21.42
2022-09-15T07:30:40.219Z,21.5
2022-09-15T07:35:47.801Z,21.56
2022-09-15T07:40:55.859Z,21.76
2022-09-15T07:46:04.162Z,21.92
2022-09-15T07:51:11.913Z,22.48
2022-09-15T07:56:19.875Z,24.66
2022-09-15T08:01:29.467Z,25.8
2022-09-15T08:06:36.413Z,24.26
2022-09-15T08:11:43.844Z,25.98
2022-09-15T08:16:51.055Z,25.3
2022-09-15T08:21:57.913Z,23.54
2022-09-15T08:27:05.275Z,22.81
2022-09-15T08:32:13.692Z,22.39
2022-09-15T08:37:21.280Z,22.34
2022-09-15T08:42:29.038Z,22.74
2022-09-15T08:47:37.223Z,22.15
2022-09-15T08:52:45.289Z,22.02
2022-09-15T08:57:54.247Z,22.26
2022-09-15T09:03:00.740Z,21.92
2022-09-15T09:08:07.940Z,21.7
2022-09-15T09:13:16.141Z,21.54
2022-09-15T09:18:23.668Z,21.4
2022-09-15T09:23:31.420Z,21.26
2022-09-15T09:28:38.914Z,21.1
2022-09-15T09:33:46.494Z,20.99
2022-09-15T09:38:53.059Z,20.86
2022-09-15T09:44:00.901Z,20.66
2022-09-15T09:49:08.608Z,20.3
2022-09-15T09:54:15.292Z,19.9
2022-09-15T09:59:22.355Z,19.2
2022-09-15T10:04:31.567Z,18.86
2022-09-15T10:09:40.329Z,18.82
2022-09-15T10:14:47.345Z,19.12
2022-09-15T10:19:55.233Z,19.18
2022-09-15T10:25:02.611Z,19.03
2022-09-15T10:30:09.733Z,18.78
2022-09-15T10:35:17.384Z,18.64
2022-09-15T10:40:26.330Z,18.39
2022-09-15T10:45:33.462Z,18.28
2022-09-15T10:50:41.438Z,18.6
2022-09-15T10:55:49.980Z,19.06
2022-09-15T11:00:58.798Z,19.34
2022-09-15T11:06:05.760Z,19.54
2022-09-15T11:11:12.637Z,19.58
2022-09-15T11:16:21.254Z,19.64
2022-09-15T11:21:27.938Z,19.69
2022-09-15T11:26:36.737Z,19.79
2022-09-15T11:31:44.561Z,19.86
2022-09-15T11:36:51.528Z,19.96
2022-09-15T11:41:59.773Z,20.01
2022-09-15T11:47:07.186Z,20.08
2022-09-15T11:52:15.241Z,20.14
2022-09-15T11:57:21.610Z,20.16
2022-09-15T12:02:30.045Z,20.19
2022-09-15T12:07:37.496Z,20.23
2022-09-15T12:12:45.658Z,20.29
2022-09-15T12:17:53.968Z,20.38
2022-09-15T12:23:00.739Z,20.58
2022-09-15T12:28:09.210Z,20.8
2022-09-15T12:33:17.064Z,20.89
2022-09-15T12:38:25.417Z,20.96
2022-09-15T12:43:33.381Z,20.99
2022-09-15T12:48:41.002Z,21.08
2022-09-15T12:53:47.780Z,21.14
2022-09-15T12:58:55.200Z,21.26
2022-09-15T13:04:02.821Z,21.44
2022-09-15T13:09:10.660Z,21.62
2022-09-15T13:14:18.418Z,21.86
2022-09-15T13:19:26.332Z,22.11
2022-09-15T13:24:34.548Z,22.39
2022-09-15T13:29:41.427Z,22.48
2022-09-15T13:34:48.652Z,22.44
2022-09-15T13:39:56.188Z,22.44
2022-09-15T13:45:04.122Z,22.58
2022-09-15T13:50:11.483Z,22.88
2022-09-15T13:55:19.012Z,23.29
2022-09-15T14:00:26.492Z,23.11
2022-09-15T14:05:35.493Z,22.93
2022-09-15T14:10:42.300Z,22.78
2022-09-15T14:15:50.216Z,22.98
2022-09-15T14:20:57.861Z,22.9
2022-09-15T14:26:05.457Z,22.51
2022-09-15T14:31:12.474Z,21.46
2022-09-15T14:36:18.790Z,21.06
2022-09-15T14:41:26.643Z,20.51
2022-09-15T14:46:33.840Z,19.68
2022-09-15T14:51:41.023Z,19.73
2022-09-15T14:56:50.283Z,20.19
2022-09-15T15:01:58.029Z,20.1
2022-09-15T15:07:05.866Z,20.08
2022-09-15T15:12:14.938Z,20.71
2022-09-15T15:17:22.489Z,20.9
2022-09-15T15:22:32.447Z,20.8
2022-09-15T15:27:41.061Z,20.57
2022-09-15T15:32:48.776Z,20.44
2022-09-15T15:37:56.110Z,20.38
2022-09-15T15:43:03.988Z,20.64
2022-09-15T15:48:11.885Z,20.85
2022-09-15T15:53:20.191Z,20.86
2022-09-15T15:58:27.522Z,20.64
2022-09-15T16:03:34.767Z,20.15
2022-09-15T16:08:42.776Z,19.83
2022-09-15T16:13:50.342Z,19.62
2022-09-15T16:18:58.691Z,19.49
2022-09-15T16:24:06.571Z,19.28
2022-09-15T16:29:14.302Z,19.15
2022-09-15T16:34:21.890Z,19.06
2022-09-15T16:39:30.713Z,18.94
2022-09-15T16:44:38.024Z,18.83
2022-09-15T16:49:45.790Z,18.72
2022-09-15T16:54:53.095Z,18.6
2022-09-15T17:00:01.409Z,18.47
2022-09-15T17:05:08.748Z,18.32
2022-09-15T17:10:16.730Z,18.21
2022-09-15T17:15:23.119Z,18.08
2022-09-15T17:20:31.025Z,17.93
2022-09-15T17:25:38.246Z,17.78
2022-09-15T17:30:45.440Z,17.62
2022-09-15T17:35:53.265Z,17.53
2022-09-15T17:41:00.308Z,17.48
2022-09-15T17:46:07.892Z,17.44
2022-09-15T17:51:14.870Z,17.46
2022-09-15T17:56:23.173Z,17.44
2022-09-15T18:01:29.890Z,17.36
2022-09-15T18:06:37.701Z,17.3
2022-09-15T18:11:50.663Z,17.35
2022-09-15T18:16:57.225Z,17.48
2022-09-15T18:22:05.088Z,17.5
2022-09-15T18:27:12.207Z,17.39
2022-09-15T18:32:19.392Z,17.29
2022-09-15T18:37:27.742Z,17.17
2022-09-15T18:42:35.147Z,17.04
2022-09-15T18:47:43.340Z,16.98
2022-09-15T18:52:57.041Z,16.91
2022-09-15T18:58:03.828Z,16.91
2022-09-15T19:03:10.941Z,16.94
2022-09-15T19:08:18.865Z,16.94
2022-09-15T19:13:26.656Z,16.98
2022-09-15T19:18:34.035Z,17.11
2022-09-15T19:23:41.700Z,17.19
2022-09-15T19:28:49.902Z,17.33
2022-09-15T19:33:56.055Z,17.4
2022-09-15T19:39:03.939Z,17.52
2022-09-15T19:44:11.711Z,17.61
2022-09-15T19:49:20.247Z,17.5
2022-09-15T19:54:42.759Z,17.18
2022-09-15T19:59:50.335Z,16.61
2022-09-15T20:04:58.972Z,16.32
2022-09-15T20:10:07.609Z,16.15
2022-09-15T20:15:15.029Z,16.04
2022-09-15T20:20:22.001Z,15.9
2022-09-15T20:25:30.308Z,15.78
2022-09-15T20:30:38.246Z,15.68
2022-09-15T20:35:44.882Z,15.54
2022-09-15T20:40:52.937Z,15.34
2022-09-15T20:45:59.924Z,15.25
2022-09-15T20:51:07.457Z,15.15
2022-09-15T20:56:15.545Z,15.03
2022-09-15T21:01:22.792Z,14.86
2022-09-15T21:06:31.013Z,14.74
2022-09-15T21:11:42.730Z,14.6
2022-09-15T21:16:50.760Z,14.6
2022-09-15T21:21:57.376Z,14.4
2022-09-15T21:27:04.599Z,14.26
2022-09-15T21:32:12.423Z,14.22
2022-09-15T21:37:19.940Z,14.08
2022-09-15T21:42:42.492Z,14.07
2022-09-15T21:43:09.984Z,14.07
2022-09-15T21:48:11.992Z,13.92
2022-09-15T21:48:31.140Z,13.92
2022-09-15T21:53:30.744Z,13.88
2022-09-15T21:58:38.981Z,13.88
2022-09-15T22:03:46.609Z,13.68
2022-09-15T22:08:53.891Z,13.68
2022-09-15T22:14:01.211Z,13.64
2022-09-15T22:19:10.243Z,13.53
2022-09-15T22:24:17.504Z,13.59
2022-09-15T22:29:24.712Z,13.53
2022-09-15T22:34:33.752Z,13.44
2022-09-15T22:39:42.292Z,13.39
2022-09-15T22:44:51.330Z,13.29
2022-09-15T22:49:57.996Z,13.16
2022-09-15T22:55:06.086Z,13.32
2022-09-15T23:00:13.692Z,13.4
2022-09-15T23:05:21.950Z,13.39
2022-09-15T23:10:28.762Z,13.1
2022-09-15T23:15:36.588Z,12.94
2022-09-15T23:20:44.756Z,12.79
2022-09-15T23:25:54.049Z,12.68
2022-09-15T23:31:00.693Z,12.58
2022-09-15T23:36:07.933Z,12.48
2022-09-15T23:41:15.164Z,12.42
2022-09-15T23:46:23.718Z,12.4
2022-09-15T23:51:31.744Z,12.34
2022-09-15T23:56:40.019Z,12.38
